createdAt,value
2022-12-16T00:02:24.659Z,63.98
2022-12-16T00:04:51.215Z,64.09
2022-12-16T00:07:17.653Z,64.35
2022-12-16T00:09:44.101Z,63.98
2022-12-16T00:12:10.606Z,64.71
2022-12-16T00:14:37.081Z,64.70
2022-12-16T00:17:03.585Z,64.19
2022-12-16T00:19:31.517Z,64.42
2022-12-16T00:21:58.194Z,64.62
2022-12-16T00:24:24.701Z,64.92
2022-12-16T00:26:51.273Z,64.73
2022-12-16T00:29:18.421Z,65.07
2022-12-16T00:31:47.953Z,64.01
2022-12-16T00:34:16.185Z,64.69
2022-12-16T00:36:43.714Z,63.75
2022-12-16T00:39:11.282Z,63.37
2022-12-16T00:41:38.189Z,63.54
2022-12-16T00:44:05.292Z,62.89
2022-12-16T00:46:31.806Z,63.02
2022-12-16T00:48:58.314Z,63.42
2022-12-16T00:51:24.820Z,63.59
2022-12-16T00:53:51.368Z,63.42
2022-12-16T00:56:20.714Z,63.30
2022-12-16T00:58:47.520Z,63.03
2022-12-16T01:01:14.877Z,62.98
2022-12-16T01:03:42.104Z,63.15
2022-12-16T01:06:16.056Z,63.52
2022-12-16T01:08:48.630Z,63.11
2022-12-16T01:11:20.201Z,62.68
2022-12-16T01:13:51.264Z,63.21
2022-12-16T01:16:19.245Z,62.87
2022-12-16T01:18:45.836Z,62.48
2022-12-16T01:21:15.394Z,62.30
2022-12-16T01:23:42.236Z,62.73
2022-12-16T01:26:16.436Z,62.95
2022-12-16T01:28:43.210Z,63.43
2022-12-16T01:31:10.164Z,63.16
2022-12-16T01:33:36.791Z,62.77
2022-12-16T01:36:07.772Z,62.93
2022-12-16T01:38:36.151Z,63.67
2022-12-16T01:41:04.652Z,64.08
2022-12-16T01:43:37.482Z,62.98
2022-12-16T01:46:16.070Z,63.31
2022-12-16T01:48:58.443Z,63.96
2022-12-16T01:51:37.351Z,63.96
2022-12-16T01:54:29.651Z,63.74
2022-12-16T01:57:09.338Z,64.64
2022-12-16T01:59:41.508Z,64.39
2022-12-16T02:02:09.033Z,64.92
2022-12-16T02:04:35.972Z,65.27
2022-12-16T02:07:02.482Z,64.69
2022-12-16T02:09:29.087Z,64.09
2022-12-16T02:12:26.254Z,63.46
2022-12-16T02:15:26.799Z,63.22
2022-12-16T02:18:05.102Z,63.65
2022-12-16T02:20:52.927Z,63.20
2022-12-16T02:23:48.260Z,63.53
2022-12-16T02:26:29.540Z,63.64
2022-12-16T02:29:27.898Z,62.62
2022-12-16T02:32:32.541Z,63.12
2022-12-16T02:35:26.006Z,61.95
2022-12-16T02:38:14.865Z,61.84
2022-12-16T02:41:14.978Z,62.27
2022-12-16T02:43:53.371Z,62.13
2022-12-16T02:46:25.710Z,62.34
2022-12-16T02:48:53.626Z,63.27
2022-12-16T02:51:24.348Z,62.79
2022-12-16T02:53:53.395Z,62.26
2022-12-16T02:57:07.340Z,61.37
2022-12-16T03:00:02.342Z,61.94
2022-12-16T03:02:47.499Z,61.99
2022-12-16T03:05:40.824Z,62.10
2022-12-16T03:08:14.452Z,61.73
2022-12-16T03:11:01.000Z,61.60
2022-12-16T03:13:35.171Z,61.79
2022-12-16T03:16:06.903Z,62.02
2022-12-16T03:18:38.677Z,62.31
2022-12-16T03:21:07.936Z,61.51
2022-12-16T03:23:50.058Z,61.72
2022-12-16T03:26:25.945Z,61.23
2022-12-16T03:29:02.254Z,61.85
2022-12-16T03:32:03.141Z,61.41
2022-12-16T03:34:48.300Z,62.32
2022-12-16T03:37:15.339Z,61.69
2022-12-16T03:39:48.789Z,61.22
2022-12-16T03:42:16.215Z,61.54
2022-12-16T03:44:47.757Z,61.88
2022-12-16T03:47:19.800Z,61.51
2022-12-16T03:49:49.842Z,61.27
2022-12-16T03:52:16.396Z,61.17
2022-12-16T03:54:42.899Z,61.00
2022-12-16T03:57:15.008Z,61.93
2022-12-16T03:59:42.905Z,61.61
2022-12-16T04:02:09.560Z,61.63
2022-12-16T04:04:36.123Z,62.94
2022-12-16T04:07:20.818Z,63.04
2022-12-16T04:09:49.967Z,62.02
2022-12-16T04:12:35.546Z,63.36
2022-12-16T04:15:20.790Z,62.56
2022-12-16T04:18:05.937Z,63.01
2022-12-16T04:20:56.122Z,62.28
2022-12-16T04:23:45.324Z,62.21
2022-12-16T04:26:12.209Z,62.38
2022-12-16T04:28:38.672Z,62.74
2022-12-16T04:31:05.873Z,63.38
2022-12-16T04:33:51.312Z,62.76
2022-12-16T04:36:36.636Z,62.13
2022-12-16T04:39:22.736Z,61.25
2022-12-16T04:42:12.458Z,61.66
2022-12-16T04:44:57.705Z,62.18
2022-12-16T04:47:43.368Z,61.56
2022-12-16T04:50:28.584Z,61.69
2022-12-16T04:53:13.942Z,61.25
2022-12-16T04:56:03.839Z,61.54
2022-12-16T04:58:49.521Z,61.29
2022-12-16T05:01:34.891Z,60.83
2022-12-16T05:04:20.071Z,61.07
2022-12-16T05:07:05.526Z,60.09
2022-12-16T05:09:50.756Z,60.71
2022-12-16T05:12:36.214Z,59.88
2022-12-16T05:15:21.544Z,60.76
2022-12-16T05:18:06.797Z,60.70
2022-12-16T05:21:05.892Z,60.74
2022-12-16T05:23:51.227Z,60.84
2022-12-16T05:26:36.582Z,60.18
2022-12-16T05:29:21.809Z,61.10
2022-12-16T05:32:07.109Z,60.79
2022-12-16T05:34:52.333Z,61.46
2022-12-16T05:37:37.737Z,61.27
2022-12-16T05:40:23.706Z,60.96
2022-12-16T05:43:13.346Z,61.04
2022-12-16T05:46:01.502Z,61.12
2022-12-16T05:48:47.968Z,61.23
2022-12-16T05:51:33.154Z,61.08
2022-12-16T05:54:18.437Z,60.87
2022-12-16T05:57:03.902Z,61.01
2022-12-16T05:59:49.078Z,60.49
2022-12-16T06:02:34.660Z,61.00
2022-12-16T06:05:19.672Z,60.52
2022-12-16T06:08:12.038Z,60.85
2022-12-16T06:11:13.992Z,60.37
2022-12-16T06:13:59.040Z,60.57
2022-12-16T06:16:44.228Z,61.92
2022-12-16T06:19:29.527Z,61.63
2022-12-16T06:22:14.800Z,60.92
2022-12-16T06:25:00.216Z,61.25
2022-12-16T06:27:45.160Z,61.20
2022-12-16T06:30:30.529Z,60.87
2022-12-16T06:33:15.993Z,59.54
2022-12-16T06:36:01.315Z,60.67
2022-12-16T06:38:46.713Z,59.95
2022-12-16T06:41:31.839Z,59.95
2022-12-16T06:44:17.079Z,59.95
2022-12-16T06:47:02.469Z,59.70
2022-12-16T06:49:47.643Z,60.58
2022-12-16T06:52:32.945Z,60.48
2022-12-16T06:55:18.098Z,60.21
2022-12-16T06:58:09.607Z,60.72
2022-12-16T07:00:55.297Z,60.33
2022-12-16T07:03:40.658Z,59.97
2022-12-16T07:06:26.119Z,60.48
2022-12-16T07:09:11.413Z,60.36
2022-12-16T07:11:56.641Z,60.38
2022-12-16T07:14:41.992Z,60.53
2022-12-16T07:17:27.214Z,60.27
2022-12-16T07:20:12.715Z,60.33
2022-12-16T07:23:09.894Z,59.75
2022-12-16T07:25:58.410Z,59.96
2022-12-16T07:28:43.809Z,59.90
2022-12-16T07:31:28.851Z,59.77
2022-12-16T07:34:14.104Z,59.73
2022-12-16T07:36:59.336Z,59.65
2022-12-16T07:39:46.714Z,60.31
2022-12-16T07:42:33.770Z,60.07
2022-12-16T07:45:18.996Z,59.69
2022-12-16T07:48:08.943Z,58.82
2022-12-16T07:50:55.785Z,59.29
2022-12-16T07:53:41.537Z,58.24
2022-12-16T07:56:27.276Z,60.14
2022-12-16T07:59:13.255Z,59.49
2022-12-16T08:01:58.652Z,59.61
2022-12-16T08:04:43.904Z,59.01
2022-12-16T08:07:29.242Z,59.51
2022-12-16T08:10:14.536Z,58.76
2022-12-16T08:12:59.959Z,59.06
2022-12-16T08:15:46.270Z,59.72
2022-12-16T08:18:31.617Z,59.98
2022-12-16T08:21:16.859Z,59.42
2022-12-16T08:24:01.941Z,59.16
2022-12-16T08:26:47.223Z,59.42
2022-12-16T08:29:44.314Z,58.91
2022-12-16T08:32:30.040Z,58.68
2022-12-16T08:35:15.280Z,59.24
2022-12-16T08:38:00.543Z,60.24
2022-12-16T08:40:45.722Z,61.14
2022-12-16T08:43:31.509Z,60.19
2022-12-16T08:46:16.638Z,60.56
2022-12-16T08:49:01.965Z,60.99
2022-12-16T08:51:47.990Z,60.94
2022-12-16T08:54:33.133Z,61.26
2022-12-16T08:57:18.368Z,61.89
2022-12-16T09:00:03.654Z,61.58
2022-12-16T09:02:49.132Z,62.07
2022-12-16T09:05:34.551Z,62.38
2022-12-16T09:08:22.730Z,62.01
2022-12-16T09:11:08.498Z,61.26
2022-12-16T09:13:53.776Z,61.78
2022-12-16T09:16:39.715Z,62.07
2022-12-16T09:19:24.631Z,62.18
2022-12-16T09:22:11.442Z,61.93
2022-12-16T09:24:56.925Z,62.98
2022-12-16T09:27:42.295Z,63.41
2022-12-16T09:30:28.588Z,62.45
2022-12-16T09:33:14.014Z,61.80
2022-12-16T09:35:59.210Z,63.01
2022-12-16T09:38:44.521Z,63.39
2022-12-16T09:42:00.266Z,63.57
2022-12-16T09:45:08.204Z,63.94
2022-12-16T09:48:11.250Z,62.67
2022-12-16T09:51:02.412Z,63.04
2022-12-16T09:53:55.087Z,62.70
2022-12-16T09:56:55.146Z,62.88
2022-12-16T09:59:51.897Z,62.37
2022-12-16T10:02:38.954Z,63.22
2022-12-16T10:05:31.733Z,62.86
2022-12-16T10:08:43.167Z,63.00
2022-12-16T10:11:44.553Z,62.75
2022-12-16T10:14:44.693Z,63.04
2022-12-16T10:17:43.301Z,64.36
2022-12-16T10:21:07.451Z,64.84
2022-12-16T10:24:25.500Z,64.13
2022-12-16T10:27:35.096Z,63.99
2022-12-16T10:30:22.279Z,64.51
2022-12-16T10:33:09.048Z,65.77
2022-12-16T10:36:05.990Z,63.94
2022-12-16T10:39:05.179Z,63.78
2022-12-16T10:41:58.548Z,64.08
2022-12-16T10:45:13.370Z,63.93
2022-12-16T10:47:58.632Z,64.91
2022-12-16T10:50:43.889Z,64.24
2022-12-16T10:53:44.897Z,63.61
2022-12-16T10:57:12.805Z,64.59
2022-12-16T10:59:59.941Z,64.60
2022-12-16T11:02:47.328Z,66.74
2022-12-16T11:05:53.397Z,64.86
2022-12-16T11:08:44.769Z,64.39
2022-12-16T11:11:46.549Z,64.83
2022-12-16T11:15:27.229Z,65.23
2022-12-16T11:17:53.899Z,64.82
2022-12-16T11:20:44.936Z,64.83
2022-12-16T11:23:44.346Z,64.48
2022-12-16T11:26:37.512Z,64.77
2022-12-16T11:29:24.067Z,64.74
2022-12-16T11:32:40.389Z,65.62
2022-12-16T11:35:37.226Z,65.34
2022-12-16T11:38:31.007Z,64.94
2022-12-16T11:41:18.432Z,64.62
2022-12-16T11:44:10.299Z,65.03
2022-12-16T11:46:55.765Z,67.00
2022-12-16T11:49:51.240Z,66.40
2022-12-16T11:52:41.605Z,65.54
2022-12-16T11:56:05.417Z,66.72
2022-12-16T11:59:00.718Z,66.63
2022-12-16T12:01:56.051Z,65.15
2022-12-16T12:04:41.882Z,65.68
2022-12-16T12:07:59.798Z,65.06
2022-12-16T12:11:08.048Z,66.30
2022-12-16T12:14:14.664Z,66.59
2022-12-16T12:17:20.078Z,67.68
2022-12-16T12:20:43.551Z,67.33
2022-12-16T12:23:32.840Z,67.94
2022-12-16T12:26:31.480Z,67.03
2022-12-16T12:29:37.037Z,67.21
2022-12-16T12:32:46.843Z,67.35
2022-12-16T12:35:56.681Z,66.75
2022-12-16T12:38:58.532Z,67.76
2022-12-16T12:42:03.321Z,67.12
2022-12-16T12:45:21.524Z,66.66
2022-12-16T12:48:27.403Z,66.30
2022-12-16T12:51:44.185Z,66.18
2022-12-16T12:54:54.164Z,65.70
2022-12-16T12:57:45.839Z,65.26
2022-12-16T13:00:44.397Z,65.50
2022-12-16T13:03:54.718Z,65.16
2022-12-16T13:06:42.710Z,66.55
2022-12-16T13:09:55.058Z,66.33
2022-12-16T13:12:52.465Z,66.08
2022-12-16T13:15:56.900Z,66.73
2022-12-16T13:18:48.731Z,65.29
2022-12-16T13:22:05.263Z,65.76
2022-12-16T13:25:08.809Z,66.13
2022-12-16T13:28:14.992Z,65.47
2022-12-16T13:31:25.948Z,64.80
2022-12-16T13:34:13.132Z,65.00
2022-12-16T13:37:01.729Z,65.23
2022-12-16T13:39:49.716Z,65.06
2022-12-16T13:43:29.239Z,65.13
2022-12-16T13:46:23.406Z,64.73
2022-12-16T13:49:09.271Z,65.27
2022-12-16T13:51:57.073Z,65.28
2022-12-16T13:54:51.348Z,65.46
2022-12-16T13:57:40.472Z,65.30
2022-12-16T14:00:40.307Z,65.77
2022-12-16T14:04:07.400Z,66.38
2022-12-16T14:06:58.058Z,65.92
2022-12-16T14:09:53.553Z,65.86
2022-12-16T14:12:59.815Z,66.45
2022-12-16T14:15:57.701Z,66.61
2022-12-16T14:19:04.036Z,66.73
2022-12-16T14:22:46.440Z,66.87
2022-12-16T14:25:39.942Z,67.18
2022-12-16T14:28:58.341Z,67.34
2022-12-16T14:31:59.432Z,67.39
2022-12-16T14:34:54.097Z,67.69
2022-12-16T14:37:55.129Z,67.34
2022-12-16T14:40:46.485Z,67.72
2022-12-16T14:43:38.004Z,67.17
2022-12-16T14:46:23.861Z,67.22
2022-12-16T14:49:09.925Z,66.99
2022-12-16T14:52:03.918Z,66.96
2022-12-16T14:54:58.763Z,67.04
2022-12-16T14:57:51.533Z,67.07
2022-12-16T15:00:42.872Z,66.82
2022-12-16T15:03:42.920Z,67.58
2022-12-16T15:06:48.484Z,67.52
2022-12-16T15:09:51.143Z,67.50
2022-12-16T15:12:42.991Z,67.82
2022-12-16T15:15:37.942Z,67.83
2022-12-16T15:18:23.696Z,68.08
2022-12-16T15:21:13.343Z,67.31
2022-12-16T15:24:03.305Z,67.72
2022-12-16T15:26:55.390Z,67.77
2022-12-16T15:29:57.625Z,67.41
2022-12-16T15:32:45.858Z,67.59
2022-12-16T15:35:54.850Z,67.93
2022-12-16T15:38:52.510Z,67.52
2022-12-16T15:41:49.905Z,67.71
2022-12-16T15:44:42.642Z,67.44
2022-12-16T15:48:12.080Z,67.90
2022-12-16T15:50:57.375Z,67.72
2022-12-16T15:53:50.773Z,67.23
2022-12-16T15:56:40.020Z,67.63
2022-12-16T15:59:44.557Z,67.61
2022-12-16T16:02:38.185Z,67.44
2022-12-16T16:05:39.652Z,67.86
2022-12-16T16:08:24.864Z,67.65
2022-12-16T16:11:10.019Z,67.70
2022-12-16T16:13:59.336Z,67.22
2022-12-16T16:16:49.678Z,66.79
2022-12-16T16:19:44.072Z,66.46
2022-12-16T16:22:35.512Z,66.81
2022-12-16T16:25:21.273Z,67.10
2022-12-16T16:28:06.525Z,66.91
2022-12-16T16:30:51.937Z,67.65
2022-12-16T16:33:37.276Z,67.52
2022-12-16T16:36:33.342Z,67.74
2022-12-16T16:39:18.518Z,67.72
2022-12-16T16:42:03.876Z,67.49
2022-12-16T16:44:49.644Z,67.79
2022-12-16T16:47:36.308Z,67.21
2022-12-16T16:50:21.473Z,66.84
2022-12-16T16:53:06.727Z,66.74
2022-12-16T16:55:52.034Z,66.66
2022-12-16T16:58:49.787Z,66.51
2022-12-16T17:01:36.853Z,67.00
2022-12-16T17:04:22.450Z,67.14
2022-12-16T17:07:08.056Z,67.59
2022-12-16T17:09:53.365Z,67.52
2022-12-16T17:12:42.695Z,66.64
2022-12-16T17:15:39.766Z,66.02
2022-12-16T17:18:25.834Z,66.92
2022-12-16T17:21:13.677Z,65.99
2022-12-16T17:23:58.892Z,66.30
2022-12-16T17:26:44.055Z,66.61
2022-12-16T17:29:41.886Z,66.35
2022-12-16T17:32:28.128Z,66.73
2022-12-16T17:35:13.476Z,66.03
2022-12-16T17:37:58.585Z,65.80
2022-12-16T17:40:44.360Z,65.52
2022-12-16T17:43:29.875Z,65.80
2022-12-16T17:46:24.599Z,65.11
2022-12-16T17:49:17.589Z,65.18
2022-12-16T17:52:02.851Z,65.59
2022-12-16T17:54:48.685Z,65.74
2022-12-16T17:57:34.112Z,65.86
2022-12-16T18:00:19.238Z,66.28
2022-12-16T18:03:04.747Z,65.26
2022-12-16T18:05:50.318Z,65.39
2022-12-16T18:08:35.701Z,65.60
2022-12-16T18:11:21.009Z,65.25
2022-12-16T18:14:06.263Z,65.97
2022-12-16T18:16:51.631Z,66.24
2022-12-16T18:19:36.723Z,66.00
2022-12-16T18:22:22.513Z,65.02
2022-12-16T18:25:07.697Z,64.66
2022-12-16T18:27:54.907Z,65.13
2022-12-16T18:30:40.350Z,64.73
2022-12-16T18:33:25.528Z,64.18
2022-12-16T18:36:10.762Z,64.64
2022-12-16T18:38:55.998Z,64.87
2022-12-16T18:41:41.408Z,64.89
2022-12-16T18:44:30.854Z,64.82
2022-12-16T18:47:16.595Z,65.52
2022-12-16T18:50:01.840Z,64.39
2022-12-16T18:52:47.740Z,64.09
2022-12-16T18:55:32.916Z,63.32
2022-12-16T18:58:42.711Z,64.30
2022-12-16T19:01:28.087Z,64.98
2022-12-16T19:04:15.685Z,64.32
2022-12-16T19:07:01.454Z,63.87
2022-12-16T19:09:51.258Z,63.45
2022-12-16T19:12:36.684Z,64.02
2022-12-16T19:15:21.935Z,64.79
2022-12-16T19:18:07.227Z,65.13
2022-12-16T19:20:52.590Z,65.21
2022-12-16T19:23:38.716Z,65.14
2022-12-16T19:26:24.083Z,64.74
2022-12-16T19:29:09.431Z,63.97
2022-12-16T19:31:54.702Z,64.52
2022-12-16T19:34:41.376Z,64.81
2022-12-16T19:37:26.697Z,64.51
2022-12-16T19:40:12.154Z,64.58
2022-12-16T19:42:57.312Z,64.04
2022-12-16T19:45:42.523Z,63.96
2022-12-16T19:48:27.590Z,64.09
2022-12-16T19:51:21.078Z,63.75
2022-12-16T19:54:06.669Z,63.82
2022-12-16T19:56:53.000Z,64.04
2022-12-16T19:59:40.951Z,63.79
2022-12-16T20:02:30.599Z,64.70
2022-12-16T20:05:16.257Z,64.50
2022-12-16T20:08:01.486Z,64.06
2022-12-16T20:10:46.568Z,64.07
2022-12-16T20:13:32.269Z,63.67
2022-12-16T20:16:26.199Z,63.53
2022-12-16T20:19:11.907Z,62.59
2022-12-16T20:21:59.716Z,62.85
2022-12-16T20:24:48.215Z,62.52
2022-12-16T20:27:53.281Z,62.57
2022-12-16T20:30:38.322Z,62.94
2022-12-16T20:33:23.177Z,63.33
2022-12-16T20:36:20.014Z,63.22
2022-12-16T20:39:05.732Z,63.43
2022-12-16T20:41:51.762Z,63.39
2022-12-16T20:44:36.693Z,63.16
2022-12-16T20:47:22.093Z,63.04
2022-12-16T20:50:06.974Z,62.45
2022-12-16T20:52:52.274Z,62.18
2022-12-16T20:55:37.433Z,62.47
2022-12-16T20:58:27.396Z,62.72
2022-12-16T21:01:13.545Z,63.36
2022-12-16T21:03:59.230Z,63.41
2022-12-16T21:06:44.444Z,63.93
2022-12-16T21:09:29.835Z,64.29
2022-12-16T21:12:15.086Z,64.10
2022-12-16T21:15:00.491Z,64.00
2022-12-16T21:17:45.672Z,63.38
2022-12-16T21:20:30.913Z,62.73
2022-12-16T21:23:19.305Z,62.69
2022-12-16T21:26:04.453Z,62.48
2022-12-16T21:28:49.676Z,62.76
2022-12-16T21:31:34.914Z,63.08
2022-12-16T21:34:20.239Z,62.41
2022-12-16T21:37:05.566Z,62.35
2022-12-16T21:39:50.789Z,61.93
2022-12-16T21:42:38.609Z,61.91
2022-12-16T21:45:26.745Z,62.38
2022-12-16T21:48:12.908Z,62.64
2022-12-16T21:50:58.069Z,62.70
2022-12-16T21:53:43.807Z,63.39
2022-12-16T21:56:29.482Z,63.33
2022-12-16T21:59:14.797Z,63.52
2022-12-16T22:02:00.187Z,62.66
2022-12-16T22:05:05.176Z,62.80
2022-12-16T22:07:50.481Z,63.27
2022-12-16T22:10:35.386Z,63.40
2022-12-16T22:13:20.715Z,63.11
2022-12-16T22:16:18.592Z,63.47
2022-12-16T22:19:04.284Z,63.88
2022-12-16T22:21:49.549Z,64.09
2022-12-16T22:24:34.824Z,64.37
2022-12-16T22:27:20.165Z,64.04
2022-12-16T22:30:05.431Z,64.43
2022-12-16T22:32:50.594Z,64.67
2022-12-16T22:35:37.272Z,64.57
2022-12-16T22:38:22.798Z,64.69
2022-12-16T22:41:16.362Z,64.49
2022-12-16T22:44:02.679Z,64.20
2022-12-16T22:46:48.295Z,64.55
2022-12-16T22:49:33.558Z,64.58
2022-12-16T22:52:19.290Z,64.45
2022-12-16T22:55:04.513Z,65.13
2022-12-16T22:57:53.518Z,65.46
2022-12-16T23:00:39.295Z,65.28
2022-12-16T23:03:24.545Z,65.47
2022-12-16T23:06:10.007Z,64.44
2022-12-16T23:08:55.343Z,63.83
2022-12-16T23:11:51.824Z,63.63
2022-12-16T23:17:42.272Z,64.06
2022-12-16T23:20:28.604Z,63.52
2022-12-16T23:23:14.696Z,63.58
2022-12-16T23:26:00.030Z,62.59
2022-12-16T23:28:45.398Z,62.52
2022-12-16T23:31:30.690Z,62.48
2022-12-16T23:34:16.263Z,62.61
2022-12-16T23:37:15.308Z,63.17
2022-12-16T23:40:00.694Z,62.58
2022-12-16T23:42:45.947Z,62.35
2022-12-16T23:45:31.291Z,62.45
2022-12-16T23:48:34.898Z,62.69
2022-12-16T23:51:20.111Z,62.26
2022-12-16T23:54:06.543Z,62.50
2022-12-16T23:56:51.575Z,62.65
2022-12-16T23:59:36.962Z,62.50
